Pagrindinis puslapis
METAR-TAF:

METAR-TAF

Oro uostai :

Geteborgas, Švedija

platuma: 57-47N, ilguma: 011-53E, Aukštis: 20 m

Dabartinis oras

Ataskaita buvo paskelbta 32 minutes, ne 20:50 UTC
Vėjas 8 kt iš Rytų/Pietryčių
Temperatūra 15°C
Drėgmė 72%
Slėgis 1008 hPa
Matomumas 10 km arba daugiau

METAR: ESGP 162050Z AUTO 11008KT 9999 FEW045/// SCT057/// BKN086/// 15/10 Q1008

Laikas: 23:22 (21:22 UTC)

Prognozė

Ataskaita buvo paskelbta 6 valandos ir 52 minutes, ne 14:30 UTC
Prognozė galioja nuo 16 metu 15 UTC su 16 metu 17 UTC
Vėjas 10 kt iš Pietų/Pietryčių
Matomumas 10 km arba daugiau
nėra debesų žemiau 1500 m ir nėra kamuolinių lietaus debesų
Laikinai
nuo 16 metu 15 UTC su 16 metu 17 UTC
Išsisklaidę debesys ne aukštis 5000 ft, Liūtiniai kamuoliniai debesys.

TAF: ESGP 161430Z 1615/1617 16010KT CAVOK TEMPO 1615/1617 SCT050CB

Orai ataskaitas ir orų prognozės (METAR, TAF).

turimą stotys yra geltonos ir raudonos taškus žemėlapyje.

Perkelti pele per norėdami pamatyti stoties vardą.

Tada spustelėkite, norėdami matyti oro stebėjimo ir prognozės.

Norėdami pakeisti žemėlapį: spustelėkite ant žalios mygtukų su juodo kryžiaus žemyn,; žalią mygtuką su brūkšneliu, jei norite nutolinti; arba žalių rodyklių gretimoms žemėlapius.


METAR-TAF: